Time;durP1;ratioP1;P1;durP2;ratioP2;P2;SDS_P1;SDS_P2;PMS_P1;PMS_P2;Temp;Humidity;BMP_temperature;BMP_pressure;BME280_temperature;BME280_humidity;BME280_pressure;Samples;Min_cycle;Max_cycle;Signal;HPM_P1;HPM_P2
2022/09/08 00:00:57;;;;;;;8.50;2.70;;;26.50;78.70;;;;;;5035267;28;20025;-71
2022/09/08 00:03:26;;;;;;;7.82;3.17;;;26.40;78.90;;;;;;5033983;28;20084;-69
2022/09/08 00:06:03;;;;;;;13.13;3.50;;;26.40;79.00;;;;;;5035013;28;20529;-67
2022/09/08 00:08:30;;;;;;;8.10;3.20;;;26.40;79.80;;;;;;5034954;28;20056;-67
2022/09/08 00:11:03;;;;;;;10.75;3.45;;;26.40;80.00;;;;;;5034752;28;20038;-68
2022/09/08 00:13:32;;;;;;;10.80;3.63;;;26.40;80.40;;;;;;5034700;28;20029;-70
2022/09/08 00:16:01;;;;;;;7.38;3.47;;;26.40;80.90;;;;;;5035096;28;20113;-70
2022/09/08 00:18:28;;;;;;;13.23;3.85;;;26.40;81.40;;;;;;5033603;28;20028;-72
2022/09/08 00:20:53;;;;;;;7.45;3.30;;;26.40;81.90;;;;;;5035604;28;20466;-70
2022/09/08 00:23:19;;;;;;;7.45;3.50;;;26.40;82.10;;;;;;5035273;28;20025;-69
2022/09/08 00:25:46;;;;;;;9.43;3.60;;;26.40;82.00;;;;;;5034706;28;20061;-67
2022/09/08 00:28:13;;;;;;;8.40;3.97;;;26.40;81.90;;;;;;5033466;28;20025;-66
2022/09/08 00:30:39;;;;;;;12.23;4.60;;;26.40;82.40;;;;;;5034390;28;20029;-67
2022/09/08 00:33:05;;;;;;;9.82;4.10;;;26.40;82.50;;;;;;5034692;28;20026;-69
2022/09/08 00:35:31;;;;;;;10.05;4.30;;;26.40;82.70;;;;;;5034324;28;20033;-66
2022/09/08 00:37:57;;;;;;;12.45;4.50;;;26.40;82.50;;;;;;5034227;28;20356;-67
2022/09/08 00:40:25;;;;;;;8.95;4.07;;;26.50;82.60;;;;;;5034629;28;20356;-68
2022/09/08 00:42:59;;;;;;;13.55;4.45;;;26.50;82.50;;;;;;5034094;28;20391;-66
2022/09/08 00:45:26;;;;;;;10.75;4.47;;;26.50;82.60;;;;;;5034082;28;20055;-67
2022/09/08 00:47:59;;;;;;;14.18;5.07;;;26.50;82.60;;;;;;5033768;28;20028;-67
2022/09/08 00:50:28;;;;;;;10.77;4.60;;;26.50;83.60;;;;;;5033649;28;20018;-66
2022/09/08 00:53:03;;;;;;;7.60;4.38;;;26.50;83.60;;;;;;5033401;28;20037;-67
2022/09/08 00:55:35;;;;;;;10.52;4.25;;;26.50;82.80;;;;;;5033361;28;20109;-71
2022/09/08 00:58:02;;;;;;;11.50;4.47;;;26.50;82.60;;;;;;5034129;28;20025;-72
2022/09/08 01:00:28;;;;;;;9.98;4.60;;;26.50;82.30;;;;;;5034387;28;20038;-72
2022/09/08 01:02:54;;;;;;;9.88;4.57;;;26.50;82.30;;;;;;5033997;28;20029;-70
2022/09/08 01:05:27;;;;;;;10.45;4.18;;;26.60;82.00;;;;;;5033482;28;20029;-71
2022/09/08 01:14:11;;;;;;;9.00;3.35;;;26.50;80.20;;;;;;5033949;28;20091;-68
2022/09/08 01:16:40;;;;;;;10.25;3.47;;;26.50;79.00;;;;;;5033202;28;20463;-68
2022/09/08 01:19:25;;;;;;;12.90;3.20;;;26.50;78.90;;;;;;5033322;28;20104;-66
2022/09/08 01:22:02;;;;;;;7.90;3.15;;;26.50;78.20;;;;;;5033115;28;20132;-67
2022/09/08 01:25:01;;;;;;;7.75;2.85;;;26.50;78.10;;;;;;5033070;28;20095;-66
2022/09/08 01:27:30;;;;;;;7.47;3.05;;;26.50;77.70;;;;;;4999866;28;20049;-66
2022/09/08 01:30:06;;;;;;;10.90;3.20;;;26.40;78.00;;;;;;5033192;28;20479;-67
2022/09/08 01:32:37;;;;;;;8.02;2.80;;;26.40;77.60;;;;;;5033232;28;20025;-66
2022/09/08 01:35:04;;;;;;;9.80;2.97;;;26.40;77.90;;;;;;5033040;28;20045;-68
2022/09/08 01:37:30;;;;;;;10.77;3.30;;;26.40;77.60;;;;;;5032952;28;20466;-68
2022/09/08 01:39:57;;;;;;;11.93;3.72;;;26.40;77.80;;;;;;5032872;28;20059;-67
2022/09/08 01:42:23;;;;;;;6.82;3.10;;;26.40;77.60;;;;;;5032566;28;20402;-66
2022/09/08 01:44:49;;;;;;;7.60;3.28;;;26.40;77.70;;;;;;5032841;28;20033;-71
2022/09/08 01:47:15;;;;;;;7.50;2.90;;;26.40;77.60;;;;;;5032845;28;20018;-68
2022/09/08 01:49:40;;;;;;;9.25;3.50;;;26.40;77.50;;;;;;5032853;28;20170;-66
2022/09/08 01:52:06;;;;;;;8.63;3.13;;;26.40;78.00;;;;;;5032990;28;20017;-66
2022/09/08 01:54:32;;;;;;;6.65;3.10;;;26.50;77.40;;;;;;5032907;28;20025;-69
2022/09/08 01:56:58;;;;;;;9.88;3.13;;;26.40;77.30;;;;;;5033099;28;20033;-72
2022/09/08 01:59:24;;;;;;;13.68;3.80;;;26.40;77.10;;;;;;5032910;28;20057;-66
2022/09/08 02:01:50;;;;;;;9.00;3.10;;;26.30;77.40;;;;;;5032487;28;20037;-66
2022/09/08 02:04:16;;;;;;;11.55;3.22;;;26.40;77.60;;;;;;5032341;28;20041;-67
2022/09/08 02:06:42;;;;;;;8.45;3.42;;;26.30;77.30;;;;;;5032500;28;20091;-68
2022/09/08 02:09:08;;;;;;;13.88;3.40;;;26.30;77.50;;;;;;5032732;28;20033;-66
2022/09/08 02:11:34;;;;;;;10.90;3.35;;;26.30;77.50;;;;;;5032667;28;20018;-69
2022/09/08 02:13:59;;;;;;;9.18;3.28;;;26.30;77.60;;;;;;5032192;28;20026;-68
2022/09/08 02:16:25;;;;;;;9.50;3.47;;;26.20;77.70;;;;;;5032513;28;20028;-66
2022/09/08 02:18:55;;;;;;;6.53;3.00;;;26.30;77.80;;;;;;5032391;28;20037;-69
2022/09/08 02:21:22;;;;;;;8.25;3.60;;;26.20;77.90;;;;;;5031710;28;20421;-66
2022/09/08 02:23:49;;;;;;;8.50;3.45;;;26.20;78.00;;;;;;5032212;28;20041;-70
2022/09/08 02:26:18;;;;;;;9.90;3.50;;;26.20;77.50;;;;;;5036050;28;20552;-67
2022/09/08 02:28:45;;;;;;;6.55;3.35;;;26.20;77.70;;;;;;5036065;28;20061;-67
2022/09/08 02:31:11;;;;;;;9.55;3.20;;;26.20;77.60;;;;;;5035919;28;20017;-66
2022/09/08 02:33:37;;;;;;;10.02;3.75;;;26.30;77.60;;;;;;5036173;28;20092;-70
2022/09/08 02:36:03;;;;;;;9.02;3.38;;;26.30;77.60;;;;;;5035368;28;20144;-66
2022/09/08 02:38:29;;;;;;;9.20;3.40;;;26.30;77.60;;;;;;5035978;28;20025;-67
2022/09/08 02:40:55;;;;;;;13.45;3.85;;;26.20;77.50;;;;;;5036291;28;20332;-69
2022/09/08 02:43:22;;;;;;;12.07;3.53;;;26.20;77.40;;;;;;5035879;28;20126;-70
2022/09/08 02:45:48;;;;;;;9.48;3.72;;;26.10;77.50;;;;;;5035962;28;20450;-68
2022/09/08 02:48:14;;;;;;;7.55;3.05;;;26.20;77.60;;;;;;5036153;28;20108;-68
2022/09/08 02:50:41;;;;;;;8.52;3.35;;;26.10;77.60;;;;;;5036026;28;20049;-75
2022/09/08 02:53:07;;;;;;;12.00;3.60;;;26.10;77.70;;;;;;5036767;28;20132;-68
2022/09/08 02:55:37;;;;;;;8.80;3.85;;;26.10;77.70;;;;;;5038535;28;20104;-67
2022/09/08 02:58:03;;;;;;;8.15;3.40;;;26.10;78.00;;;;;;5041323;28;20441;-70
2022/09/08 03:00:32;;;;;;;9.73;3.60;;;26.10;77.90;;;;;;5039552;28;20029;-69
2022/09/08 03:02:58;;;;;;;12.13;3.55;;;26.10;77.80;;;;;;5038288;28;20030;-68
2022/09/08 03:05:24;;;;;;;7.18;2.90;;;26.10;78.00;;;;;;5037941;28;20025;-66
2022/09/08 03:07:50;;;;;;;13.93;3.60;;;26.10;78.10;;;;;;5036589;28;20046;-67
2022/09/08 03:10:16;;;;;;;11.55;3.22;;;26.10;78.20;;;;;;5036804;28;20401;-67
2022/09/08 03:12:42;;;;;;;8.40;3.58;;;26.10;78.10;;;;;;5036389;28;20021;-69
2022/09/08 03:15:08;;;;;;;10.25;3.10;;;26.10;78.20;;;;;;5036019;28;20044;-67
2022/09/08 03:17:34;;;;;;;9.00;3.20;;;26.10;78.20;;;;;;5036182;28;20049;-71
2022/09/08 03:19:59;;;;;;;10.70;3.78;;;26.10;78.20;;;;;;5035485;28;20475;-67
2022/09/08 03:22:25;;;;;;;7.50;3.00;;;26.10;78.10;;;;;;5035146;28;20486;-67
2022/09/08 03:24:51;;;;;;;12.52;3.60;;;26.10;78.10;;;;;;5033873;28;20076;-68
2022/09/08 03:27:17;;;;;;;10.23;3.33;;;26.00;78.20;;;;;;5035305;28;20017;-68
2022/09/08 03:29:42;;;;;;;9.85;3.30;;;26.00;78.10;;;;;;5035493;28;20029;-68
2022/09/08 03:32:08;;;;;;;8.82;2.90;;;26.00;78.20;;;;;;5035089;28;20032;-66
2022/09/08 03:34:35;;;;;;;13.10;3.70;;;26.00;78.20;;;;;;5035614;28;20025;-67
2022/09/08 03:37:01;;;;;;;8.80;3.28;;;26.00;78.30;;;;;;5035990;28;20032;-70
2022/09/08 03:39:27;;;;;;;10.90;3.60;;;26.00;78.20;;;;;;5036521;28;20040;-70
2022/09/08 03:41:54;;;;;;;8.48;3.10;;;26.00;78.40;;;;;;5036437;28;20433;-69
2022/09/08 03:44:20;;;;;;;9.20;3.60;;;26.00;78.30;;;;;;5034794;28;20472;-68
2022/09/08 03:46:45;;;;;;;8.60;3.50;;;25.90;78.10;;;;;;5035497;28;20494;-66
2022/09/08 03:49:12;;;;;;;13.30;3.92;;;26.00;78.20;;;;;;5035450;28;20387;-71
2022/09/08 03:51:37;;;;;;;10.75;3.55;;;26.00;78.20;;;;;;5035911;28;20552;-66
2022/09/08 03:56:51;;;;;;;15.43;4.05;;;25.90;78.20;;;;;;5035559;28;20040;-68
2022/09/08 03:59:17;;;;;;;9.88;3.55;;;26.00;78.00;;;;;;5035805;28;20060;-68
2022/09/08 04:01:43;;;;;;;12.23;3.97;;;26.00;78.00;;;;;;5035791;28;20360;-68
2022/09/08 04:04:11;;;;;;;8.95;3.53;;;26.00;77.80;;;;;;5017509;28;20136;-68
2022/09/08 04:06:37;;;;;;;8.23;3.28;;;26.00;77.80;;;;;;5035385;28;20044;-68
2022/09/08 04:09:03;;;;;;;10.75;3.42;;;26.00;77.70;;;;;;5034897;28;20552;-69
2022/09/08 04:11:29;;;;;;;12.20;4.15;;;26.00;77.50;;;;;;5034846;28;20018;-67
2022/09/08 04:13:55;;;;;;;12.40;4.30;;;26.00;77.50;;;;;;5034656;28;20050;-71
2022/09/08 04:16:21;;;;;;;7.85;3.88;;;26.00;77.50;;;;;;5034678;28;20080;-72
2022/09/08 04:18:47;;;;;;;10.38;3.40;;;25.90;77.40;;;;;;5034258;28;20025;-73
2022/09/08 04:21:12;;;;;;;13.85;3.90;;;25.90;77.50;;;;;;5034892;28;20096;-67
2022/09/08 04:23:38;;;;;;;13.57;3.95;;;25.90;77.50;;;;;;5033693;28;20033;-69
2022/09/08 04:26:09;;;;;;;10.45;3.55;;;25.90;77.60;;;;;;5033819;28;20025;-69
2022/09/08 04:28:35;;;;;;;10.85;3.50;;;25.90;77.50;;;;;;5034096;28;20376;-66
2022/09/08 04:31:05;;;;;;;11.73;3.83;;;25.80;77.90;;;;;;5033850;28;20501;-68
2022/09/08 04:33:31;;;;;;;8.32;3.42;;;25.80;77.60;;;;;;5033988;28;20017;-68
2022/09/08 04:35:57;;;;;;;6.78;3.35;;;25.80;77.80;;;;;;5034037;28;20021;-72
2022/09/08 04:38:23;;;;;;;9.07;3.83;;;25.80;77.90;;;;;;5034032;28;20028;-71
2022/09/08 04:40:48;;;;;;;10.52;3.72;;;25.90;77.90;;;;;;5033878;28;20036;-67
2022/09/08 04:43:14;;;;;;;9.32;4.00;;;25.90;77.80;;;;;;5033550;28;20033;-67
2022/09/08 04:45:40;;;;;;;10.52;4.32;;;25.90;77.70;;;;;;5015947;28;20505;-70
2022/09/08 04:48:06;;;;;;;14.27;4.30;;;25.90;77.60;;;;;;5033137;28;20024;-70
2022/09/08 04:50:31;;;;;;;13.23;3.55;;;25.90;77.50;;;;;;5033883;28;20065;-67
2022/09/08 04:52:57;;;;;;;12.30;4.07;;;25.90;77.30;;;;;;5033720;28;20036;-68
2022/09/08 04:55:23;;;;;;;13.27;4.00;;;25.90;77.30;;;;;;5032636;28;20021;-67
2022/09/08 04:57:49;;;;;;;7.43;3.28;;;26.00;77.20;;;;;;5033703;28;20096;-74
2022/09/08 05:00:15;;;;;;;16.33;3.97;;;26.00;76.80;;;;;;5033737;28;20029;-71
2022/09/08 05:02:44;;;;;;;9.75;3.90;;;26.10;76.50;;;;;;5033532;28;20494;-75
2022/09/08 05:05:09;;;;;;;14.02;4.53;;;26.10;76.60;;;;;;5033242;28;20371;-67
2022/09/08 05:07:35;;;;;;;14.40;4.10;;;26.20;76.30;;;;;;5032934;28;20045;-71
2022/09/08 05:10:02;;;;;;;16.55;3.85;;;26.20;75.60;;;;;;5033118;28;20420;-70
2022/09/08 05:12:27;;;;;;;9.48;3.63;;;26.30;75.30;;;;;;5033533;28;20033;-70
2022/09/08 05:14:53;;;;;;;12.77;4.03;;;26.30;75.40;;;;;;5033097;28;20104;-69
2022/09/08 05:17:19;;;;;;;11.02;3.75;;;26.40;75.30;;;;;;5033304;28;20022;-67
2022/09/08 05:19:44;;;;;;;9.88;4.15;;;26.50;75.00;;;;;;5033208;28;20467;-69
2022/09/08 05:22:10;;;;;;;9.82;3.63;;;26.50;74.70;;;;;;5033376;28;20028;-68
2022/09/08 05:24:36;;;;;;;11.15;4.22;;;26.50;74.70;;;;;;5033244;28;20486;-68
2022/09/08 05:27:01;;;;;;;9.63;3.63;;;26.50;74.40;;;;;;5033423;28;20025;-70
2022/09/08 05:29:27;;;;;;;12.65;3.85;;;26.60;74.10;;;;;;5032960;28;20068;-68
2022/09/08 05:31:53;;;;;;;11.55;4.00;;;26.60;73.80;;;;;;5032847;28;20029;-69
2022/09/08 05:34:18;;;;;;;10.30;4.03;;;26.60;73.80;;;;;;5032907;28;20032;-67
2022/09/08 05:36:44;;;;;;;13.65;4.07;;;26.70;73.70;;;;;;5033536;28;20424;-70
2022/09/08 05:39:10;;;;;;;13.85;4.88;;;26.70;73.60;;;;;;5033425;28;20034;-72
2022/09/08 05:41:36;;;;;;;13.00;3.90;;;26.80;73.40;;;;;;5032732;28;20108;-69
2022/09/08 05:44:02;;;;;;;20.45;4.47;;;26.80;73.00;;;;;;5032648;28;20038;-71
2022/09/08 05:46:28;;;;;;;11.23;3.38;;;26.90;72.80;;;;;;5032768;28;20025;-68
2022/09/08 05:48:59;;;;;;;13.82;7.35;;;27.00;72.50;;;;;;5032844;28;20028;-70
2022/09/08 05:51:26;;;;;;;15.00;4.30;;;27.10;72.10;;;;;;5032852;28;20032;-69
2022/09/08 05:53:52;;;;;;;16.33;3.70;;;27.30;71.90;;;;;;5032828;28;20034;-73
2022/09/08 05:56:18;;;;;;;14.80;3.88;;;27.40;71.60;;;;;;5033628;28;20067;-68
2022/09/08 05:58:54;;;;;;;14.10;4.35;;;27.70;71.60;;;;;;5034631;28;20036;-71
2022/09/08 06:01:20;;;;;;;11.07;4.65;;;27.90;70.70;;;;;;5037458;28;20017;-68
2022/09/08 06:03:49;;;;;;;16.88;5.93;;;28.10;71.00;;;;;;5037030;28;20359;-71
2022/09/08 06:06:16;;;;;;;17.17;6.68;;;28.20;70.80;;;;;;5036881;28;20367;-67
2022/09/08 06:08:42;;;;;;;17.33;4.82;;;28.30;70.80;;;;;;5036445;28;20124;-68
2022/09/08 06:11:08;;;;;;;13.98;4.35;;;28.20;70.70;;;;;;5036565;28;20030;-73
2022/09/08 06:13:35;;;;;;;17.30;5.00;;;28.10;71.10;;;;;;5036704;28;20471;-68
2022/09/08 06:16:06;;;;;;;16.17;5.20;;;28.00;72.00;;;;;;5036556;28;20071;-71
2022/09/08 06:18:34;;;;;;;21.15;5.35;;;28.00;73.10;;;;;;5036578;28;20021;-71
2022/09/08 06:21:08;;;;;;;21.02;5.43;;;27.90;74.70;;;;;;5036379;28;20025;-68
2022/09/08 06:23:34;;;;;;;24.15;6.07;;;27.80;76.30;;;;;;5036186;28;20033;-67
2022/09/08 06:26:26;;;;;;;19.70;6.63;;;27.80;77.40;;;;;;5036224;28;20093;-73
2022/09/08 06:28:57;;;;;;;19.17;5.25;;;27.70;78.40;;;;;;5007267;28;20044;-69
2022/09/08 06:31:34;;;;;;;23.48;5.47;;;27.70;79.60;;;;;;5036603;28;20493;-69
2022/09/08 06:34:05;;;;;;;19.42;5.60;;;27.70;80.30;;;;;;5036258;28;20080;-67
2022/09/08 06:36:45;;;;;;;21.05;5.70;;;27.60;81.00;;;;;;5035916;28;20021;-69
2022/09/08 06:39:20;;;;;;;26.48;6.68;;;27.60;81.60;;;;;;5035735;28;20100;-69
2022/09/08 06:42:02;;;;;;;23.50;5.97;;;27.60;82.20;;;;;;5035974;28;20029;-70
2022/09/08 06:44:33;;;;;;;20.38;5.85;;;27.50;82.50;;;;;;5035644;28;20095;-66
2022/09/08 06:46:59;;;;;;;24.17;5.22;;;27.50;83.10;;;;;;5035920;28;20097;-72
2022/09/08 06:49:29;;;;;;;16.92;5.68;;;27.50;83.90;;;;;;5035803;28;20041;-67
2022/09/08 06:52:07;;;;;;;15.82;5.78;;;27.50;84.10;;;;;;5035576;28;20053;-71
2022/09/08 06:55:02;;;;;;;20.13;5.93;;;27.40;85.60;;;;;;5035572;28;20095;-67
2022/09/08 06:57:35;;;;;;;19.85;6.10;;;27.40;85.60;;;;;;5037065;28;20038;-68
2022/09/08 07:00:25;;;;;;;23.42;6.30;;;27.40;85.60;;;;;;5042868;28;20109;-68
2022/09/08 07:03:03;;;;;;;23.70;6.18;;;27.40;85.50;;;;;;5039843;28;20013;-67
2022/09/08 07:05:50;;;;;;;24.83;5.90;;;27.40;86.80;;;;;;5038355;28;20033;-69
2022/09/08 07:08:30;;;;;;;17.92;6.35;;;27.30;86.90;;;;;;5036703;28;20494;-69
2022/09/08 07:11:29;;;;;;;23.73;6.57;;;27.40;86.10;;;;;;5034356;28;20040;-67
2022/09/08 07:14:33;;;;;;;19.42;5.85;;;27.30;87.00;;;;;;5033568;28;20055;-71
2022/09/08 07:17:07;;;;;;;22.95;5.82;;;27.30;87.60;;;;;;5034040;28;20041;-69
2022/09/08 07:19:44;;;;;;;20.75;7.43;;;27.30;86.50;;;;;;5034707;28;20109;-67
2022/09/08 07:22:22;;;;;;;17.92;6.10;;;27.30;87.50;;;;;;5034523;28;20427;-71
2022/09/08 07:24:53;;;;;;;23.50;6.53;;;27.30;87.70;;;;;;5034901;28;20039;-69
2022/09/08 07:27:19;;;;;;;23.48;5.88;;;27.30;87.20;;;;;;5033821;28;20505;-67
2022/09/08 07:29:52;;;;;;;18.05;5.78;;;27.30;87.40;;;;;;5034574;28;20021;-74
2022/09/08 07:32:23;;;;;;;22.02;6.15;;;27.30;87.50;;;;;;5034351;28;20034;-68
2022/09/08 07:34:56;;;;;;;26.30;6.60;;;27.30;87.90;;;;;;5034211;28;20467;-74
2022/09/08 07:37:35;;;;;;;21.25;6.25;;;27.30;88.20;;;;;;5033889;28;20061;-70
2022/09/08 07:40:25;;;;;;;24.20;6.30;;;27.30;89.30;;;;;;5033424;28;20163;-68
2022/09/08 07:42:55;;;;;;;19.75;5.97;;;27.30;89.80;;;;;;5034119;28;20028;-71
2022/09/08 07:45:31;;;;;;;28.23;6.10;;;27.30;89.20;;;;;;5034124;28;20038;-68
2022/09/08 07:48:13;;;;;;;18.95;5.68;;;27.30;89.70;;;;;;5033932;28;20120;-68
2022/09/08 07:50:54;;;;;;;16.63;6.15;;;27.20;89.30;;;;;;5034105;28;20494;-69
2022/09/08 07:53:29;;;;;;;23.35;6.95;;;27.30;89.70;;;;;;5034243;28;20084;-71
2022/09/08 07:56:20;;;;;;;36.35;8.07;;;27.20;89.90;;;;;;5034406;28;20040;-68
2022/09/08 07:59:13;;;;;;;22.67;6.32;;;27.20;90.00;;;;;;5033650;28;20041;-68
2022/09/08 08:02:14;;;;;;;20.77;6.27;;;27.30;90.50;;;;;;5033993;28;20100;-68
2022/09/08 08:05:00;;;;;;;21.02;6.60;;;27.30;90.40;;;;;;4972625;28;20035;-67
2022/09/08 08:07:52;;;;;;;20.00;6.55;;;27.30;90.20;;;;;;5029813;28;20041;-71
2022/09/08 08:10:22;;;;;;;23.95;6.20;;;27.20;90.50;;;;;;5033811;28;20120;-74
2022/09/08 08:13:14;;;;;;;18.92;6.00;;;27.20;90.40;;;;;;5016303;28;20030;-67
2022/09/08 08:15:52;;;;;;;22.63;6.10;;;27.20;90.80;;;;;;5033699;28;20103;-68
2022/09/08 08:18:59;;;;;;;22.13;6.28;;;27.20;90.60;;;;;;5033708;28;20544;-72
2022/09/08 08:21:28;;;;;;;17.45;5.18;;;27.20;91.10;;;;;;5033118;28;20038;-67
2022/09/08 08:24:24;;;;;;;18.75;4.43;;;27.20;90.20;;;;;;5032866;28;20034;-68
2022/09/08 08:27:06;;;;;;;12.93;3.60;;;26.80;85.00;;;;;;5033853;28;20014;-67
2022/09/08 08:29:53;;;;;;;10.90;3.50;;;26.50;83.90;;;;;;5033509;28;20123;-66
2022/09/08 08:32:42;;;;;;;11.40;2.92;;;26.30;83.00;;;;;;5033491;28;20036;-72
2022/09/08 08:35:26;;;;;;;14.15;3.35;;;26.20;82.10;;;;;;5033534;28;20057;-66
2022/09/08 08:37:53;;;;;;;12.18;2.47;;;26.10;81.00;;;;;;5033703;28;20084;-69
2022/09/08 08:40:49;;;;;;;33.80;5.03;;;26.00;80.70;;;;;;5033349;28;20029;-66
2022/09/08 08:43:33;;;;;;;14.73;2.80;;;26.00;82.00;;;;;;5015210;28;20406;-67
2022/09/08 08:46:32;;;;;;;12.07;2.78;;;25.90;81.70;;;;;;5033161;28;20128;-68
2022/09/08 08:49:33;;;;;;;13.07;2.60;;;25.90;81.60;;;;;;5032997;28;20079;-69
2022/09/08 08:52:34;;;;;;;9.32;2.72;;;25.70;81.30;;;;;;5033291;28;20030;-67
2022/09/08 08:55:20;;;;;;;10.18;2.72;;;25.70;81.30;;;;;;4972417;28;20102;-69
2022/09/08 08:58:43;;;;;;;10.00;2.70;;;25.70;81.30;;;;;;5029392;28;20034;-68
2022/09/08 09:01:34;;;;;;;12.95;2.33;;;25.70;80.90;;;;;;4972315;28;20089;-67
2022/09/08 09:04:30;;;;;;;5.65;1.67;;;25.50;81.10;;;;;;4950288;28;20054;-68
2022/09/08 09:07:08;;;;;;;8.40;2.00;;;25.30;82.00;;;;;;5031167;28;20038;-67
2022/09/08 09:09:50;;;;;;;11.05;1.83;;;25.10;82.10;;;;;;5033192;28;20103;-72
2022/09/08 09:12:39;;;;;;;11.02;1.70;;;25.00;81.90;;;;;;5032631;28;20030;-69
2022/09/08 09:15:27;;;;;;;6.53;1.80;;;25.00;80.70;;;;;;5033286;28;20542;-70
2022/09/08 09:18:34;;;;;;;7.07;2.25;;;24.90;80.70;;;;;;5033287;28;20355;-70
2022/09/08 09:21:27;;;;;;;8.15;1.85;;;24.70;81.90;;;;;;4972135;28;20031;-73
2022/09/08 09:24:03;;;;;;;10.82;1.70;;;24.50;83.10;;;;;;5032227;28;20183;-71
2022/09/08 09:26:35;;;;;;;6.47;1.27;;;24.40;83.20;;;;;;5032380;28;20041;-75
2022/09/08 09:29:38;;;;;;;17.00;1.77;;;24.40;83.40;;;;;;5014605;28;20102;-72
2022/09/08 09:32:39;;;;;;;4.53;1.15;;;24.50;83.30;;;;;;5032602;28;20037;-72
2022/09/08 09:35:32;;;;;;;7.07;1.80;;;24.50;83.50;;;;;;5001539;28;20033;-72
2022/09/08 09:38:22;;;;;;;10.73;1.83;;;24.50;85.00;;;;;;5004167;28;20037;-75
2022/09/08 09:41:02;;;;;;;11.50;1.40;;;24.70;84.50;;;;;;5031900;28;20030;-72
2022/09/08 09:43:47;;;;;;;10.73;1.80;;;25.00;84.20;;;;;;5031978;28;20033;-73
2022/09/08 09:46:47;;;;;;;6.60;1.27;;;25.20;83.90;;;;;;5031735;28;20022;-74
2022/09/08 09:49:23;;;;;;;10.70;1.73;;;25.40;83.40;;;;;;5031714;28;20025;-75
2022/09/08 09:52:10;;;;;;;5.32;1.27;;;25.40;82.70;;;;;;5031929;28;20100;-72
2022/09/08 09:55:15;;;;;;;10.93;1.75;;;25.40;83.50;;;;;;5031711;28;20070;-70
2022/09/08 09:58:02;;;;;;;6.80;2.00;;;25.30;84.30;;;;;;5031864;28;20021;-70
2022/09/08 10:00:54;;;;;;;9.18;1.65;;;25.10;85.30;;;;;;5032038;28;20083;-69
2022/09/08 10:03:35;;;;;;;6.13;1.20;;;25.00;84.80;;;;;;5031770;28;20030;-72
2022/09/08 10:06:19;;;;;;;8.68;2.20;;;24.90;85.70;;;;;;5031398;28;20025;-68
2022/09/08 10:08:51;;;;;;;10.73;2.35;;;24.90;86.40;;;;;;5031429;28;20195;-69
2022/09/08 10:11:30;;;;;;;10.98;2.25;;;25.00;86.90;;;;;;5031269;28;20048;-71
2022/09/08 10:14:23;;;;;;;11.40;2.30;;;25.00;86.90;;;;;;5031701;28;20458;-73
2022/09/08 10:17:01;;;;;;;15.02;3.03;;;25.00;88.10;;;;;;5032006;28;20066;-73
2022/09/08 10:19:42;;;;;;;9.70;2.25;;;25.00;88.70;;;;;;5031717;28;20091;-68
2022/09/08 10:22:44;;;;;;;15.57;2.50;;;25.00;88.80;;;;;;5031719;28;20037;-71
2022/09/08 10:25:42;;;;;;;11.20;3.10;;;25.00;89.80;;;;;;5032083;28;20383;-69
2022/09/08 10:28:28;;;;;;;7.07;2.08;;;25.00;89.90;;;;;;5032104;28;20112;-76
2022/09/08 10:31:21;;;;;;;25.23;3.88;;;25.10;90.00;;;;;;5032020;28;20034;-71
2022/09/08 10:34:18;;;;;;;8.13;2.40;;;25.20;89.70;;;;;;5031342;28;20475;-70
2022/09/08 10:36:52;;;;;;;19.40;2.85;;;25.40;89.40;;;;;;5031435;28;20031;-70
2022/09/08 10:39:34;;;;;;;9.57;2.10;;;25.60;88.70;;;;;;5031362;28;20040;-73
2022/09/08 10:42:34;;;;;;;13.93;3.00;;;25.90;87.80;;;;;;5013596;28;20534;-70
2022/09/08 10:45:10;;;;;;;10.65;2.70;;;26.20;87.00;;;;;;5031498;28;20030;-68
2022/09/08 10:48:10;;;;;;;7.82;2.70;;;26.50;84.90;;;;;;5035222;28;20041;-67
2022/09/08 10:50:46;;;;;;;12.65;3.10;;;26.80;84.90;;;;;;5035369;28;20057;-69
2022/09/08 10:54:19;;;;;;;10.63;2.58;;;27.10;83.70;;;;;;5034874;28;20383;-67
2022/09/08 10:56:47;;;;;;;7.65;2.25;;;27.30;82.10;;;;;;4939734;28;20315;-71
2022/09/08 10:59:43;;;;;;;9.18;2.92;;;27.40;81.00;;;;;;4973731;28;20035;-69
2022/09/08 11:02:34;;;;;;;8.40;2.80;;;27.40;81.00;;;;;;5028138;28;20394;-67
2022/09/08 11:05:24;;;;;;;9.23;2.30;;;27.50;80.70;;;;;;5035263;28;20056;-76
2022/09/08 11:08:24;;;;;;;13.65;3.50;;;27.60;80.50;;;;;;5035132;28;20076;-76
2022/09/08 11:11:37;;;;;;;12.07;3.17;;;27.70;79.90;;;;;;5035100;28;20363;-73
2022/09/08 11:14:25;;;;;;;10.00;2.25;;;27.80;79.70;;;;;;5034996;28;20097;-81
2022/09/08 11:17:06;;;;;;;11.38;3.08;;;28.00;78.60;;;;;;5035428;28;20335;-71
2022/09/08 11:19:48;;;;;;;13.02;2.97;;;28.10;77.70;;;;;;5038318;28;20036;-71
2022/09/08 11:22:15;;;;;;;10.32;3.80;;;28.30;77.10;;;;;;5034811;28;20152;-70
2022/09/08 11:24:50;;;;;;;11.35;3.17;;;28.30;76.50;;;;;;5034562;28;20045;-72
2022/09/08 11:27:35;;;;;;;8.35;2.38;;;28.40;76.10;;;;;;5034014;28;20041;-70
2022/09/08 11:30:22;;;;;;;9.52;2.90;;;28.30;76.30;;;;;;5015560;28;20483;-68
2022/09/08 11:33:15;;;;;;;13.63;3.13;;;28.30;77.40;;;;;;5033903;28;20316;-80
2022/09/08 11:36:02;;;;;;;10.93;3.33;;;28.40;76.40;;;;;;5033862;28;20374;-73
2022/09/08 11:38:43;;;;;;;13.32;3.20;;;28.50;76.20;;;;;;5033861;28;20112;-74
2022/09/08 11:41:32;;;;;;;9.45;3.53;;;28.60;76.10;;;;;;5034380;28;20079;-74
2022/09/08 11:44:31;;;;;;;15.30;3.13;;;28.60;75.40;;;;;;5034080;28;20040;-70
2022/09/08 11:47:02;;;;;;;15.65;3.47;;;28.70;75.50;;;;;;5034176;28;20025;-72
2022/09/08 11:49:52;;;;;;;16.08;4.00;;;28.70;76.60;;;;;;5034350;28;20029;-71
2022/09/08 11:52:55;;;;;;;11.85;3.30;;;28.70;76.00;;;;;;5034353;28;20032;-73
2022/09/08 11:55:55;;;;;;;10.75;3.90;;;28.70;76.20;;;;;;5033862;28;20038;-71
2022/09/08 11:58:59;;;;;;;15.68;4.28;;;28.80;76.10;;;;;;5009407;28;20453;-73
2022/09/08 12:01:32;;;;;;;11.93;3.55;;;28.90;76.40;;;;;;5002957;28;20087;-69
2022/09/08 12:04:11;;;;;;;15.68;6.80;;;29.00;77.40;;;;;;5033582;28;20091;-71
2022/09/08 12:07:09;;;;;;;17.65;4.22;;;29.20;76.20;;;;;;5033740;28;20069;-73
2022/09/08 12:09:46;;;;;;;17.38;4.53;;;29.40;77.50;;;;;;5000438;28;20430;-78
2022/09/08 12:12:36;;;;;;;19.23;5.25;;;29.40;76.80;;;;;;5033603;28;20458;-67
2022/09/08 12:15:36;;;;;;;13.27;5.05;;;29.30;77.90;;;;;;5033675;28;20032;-68
2022/09/08 12:18:02;;;;;;;14.30;5.80;;;29.40;79.00;;;;;;5033602;28;20049;-72
2022/09/08 12:20:39;;;;;;;20.08;6.95;;;29.60;80.00;;;;;;5033948;28;20498;-75
2022/09/08 12:23:30;;;;;;;23.67;6.13;;;29.80;79.60;;;;;;5033757;28;20029;-75
2022/09/08 12:26:23;;;;;;;15.40;5.55;;;30.00;79.70;;;;;;5033550;28;20072;-73
2022/09/08 12:29:10;;;;;;;16.13;5.80;;;30.20;79.40;;;;;;5033607;28;20483;-71
2022/09/08 12:31:45;;;;;;;18.65;5.97;;;30.30;79.20;;;;;;5033878;28;20029;-68
2022/09/08 12:34:29;;;;;;;19.70;6.18;;;30.40;80.10;;;;;;5033875;28;20036;-70
2022/09/08 12:37:12;;;;;;;21.08;5.97;;;30.40;80.20;;;;;;5033652;28;20021;-71
2022/09/08 12:39:37;;;;;;;17.90;5.20;;;30.40;79.60;;;;;;5033640;28;20358;-69
2022/09/08 12:42:09;;;;;;;17.25;5.90;;;30.30;80.50;;;;;;5033562;28;20025;-70
2022/09/08 12:44:59;;;;;;;16.23;5.95;;;30.30;80.20;;;;;;5033385;28;20471;-71
2022/09/08 12:47:39;;;;;;;19.35;5.95;;;30.30;80.20;;;;;;5033242;28;20026;-69
2022/09/08 12:50:37;;;;;;;17.35;5.38;;;30.40;79.50;;;;;;5033474;28;20083;-73
2022/09/08 12:53:41;;;;;;;15.70;5.68;;;30.40;79.10;;;;;;5033341;28;20045;-69
2022/09/08 12:56:25;;;;;;;18.92;5.22;;;30.50;80.00;;;;;;5002211;28;20159;-71
2022/09/08 12:59:09;;;;;;;22.77;5.32;;;30.60;79.60;;;;;;5033344;28;20029;-72
2022/09/08 13:01:42;;;;;;;17.67;5.22;;;30.60;78.40;;;;;;5033064;28;20471;-69
2022/09/08 13:04:28;;;;;;;;;;;30.60;78.40;;;;;;5033279;28;20037;-73
2022/09/08 13:07:15;;;;;;;15.73;4.57;;;30.60;79.90;;;;;;4992371;28;20417;-75
2022/09/08 13:10:07;;;;;;;16.52;4.90;;;30.60;78.40;;;;;;5032530;28;20033;-73
2022/09/08 13:12:51;;;;;;;23.13;5.55;;;30.60;78.70;;;;;;5033133;28;20045;-71
2022/09/08 13:15:47;;;;;;;18.52;5.18;;;30.60;79.50;;;;;;5032851;28;20037;-75
2022/09/08 13:18:29;;;;;;;16.70;5.35;;;30.60;78.70;;;;;;5015001;28;20025;-77
2022/09/08 13:21:23;;;;;;;17.00;4.72;;;30.60;78.70;;;;;;5033014;28;20018;-75
2022/09/08 13:23:51;;;;;;;;;;;30.60;78.80;;;;;;5032954;28;20036;-71
2022/09/08 13:26:44;;;;;;;22.63;5.85;;;30.70;79.10;;;;;;5032754;28;19912;-70
2022/09/08 13:29:24;;;;;;;23.33;5.75;;;30.80;78.20;;;;;;5032664;28;20114;-71
2022/09/08 13:32:11;;;;;;;21.58;5.38;;;30.90;77.80;;;;;;5032985;28;20022;-70
2022/09/08 13:34:48;;;;;;;16.15;5.07;;;31.00;77.50;;;;;;5032635;28;20067;-69
2022/09/08 13:37:33;;;;;;;17.08;5.22;;;31.00;77.70;;;;;;5032593;28;20029;-74